createdAt,value
2022-12-24T00:01:06.865Z,99995.72
2022-12-24T00:03:34.089Z,99989.88
2022-12-24T00:06:08.024Z,99985.03
2022-12-24T00:08:35.309Z,99979.63
2022-12-24T00:11:01.938Z,99992.41
2022-12-24T00:13:28.474Z,100001.25
2022-12-24T00:15:54.872Z,100005.63
2022-12-24T00:18:21.259Z,100009.88
2022-12-24T00:20:51.072Z,100005.91
2022-12-24T00:23:18.095Z,100006.16
2022-12-24T00:25:45.352Z,100001.28
2022-12-24T00:28:12.601Z,100016.84
2022-12-24T00:30:42.924Z,100026.50
2022-12-24T00:33:12.210Z,100018.09
2022-12-24T00:35:39.778Z,100031.31
2022-12-24T00:38:07.259Z,100040.81
2022-12-24T00:40:36.817Z,100029.63
2022-12-24T00:43:03.452Z,100048.94
2022-12-24T00:45:32.291Z,100047.19
2022-12-24T00:47:59.195Z,100038.16
2022-12-24T00:50:25.915Z,100052.53
2022-12-24T00:52:52.304Z,100063.66
2022-12-24T00:55:19.500Z,100060.88
2022-12-24T00:57:46.167Z,100069.41
2022-12-24T01:00:13.337Z,100069.53
2022-12-24T01:02:44.960Z,100064.19
2022-12-24T01:05:12.386Z,100058.28
2022-12-24T01:07:44.624Z,100057.00
2022-12-24T01:10:11.923Z,100069.47
2022-12-24T01:12:41.084Z,100079.72
2022-12-24T01:15:11.179Z,100089.88
2022-12-24T01:17:40.296Z,100085.84
2022-12-24T01:20:09.094Z,100088.13
2022-12-24T01:22:35.823Z,100079.31
2022-12-24T01:25:09.424Z,100093.47
2022-12-24T01:27:38.535Z,100100.31
2022-12-24T01:30:07.397Z,100111.22
2022-12-24T01:32:34.143Z,100119.56
2022-12-24T01:35:00.684Z,100126.06
2022-12-24T01:37:27.074Z,100126.41
2022-12-24T01:40:13.445Z,100121.34
2022-12-24T01:43:03.909Z,100138.25
2022-12-24T01:45:53.293Z,100147.53
2022-12-24T01:48:35.755Z,100155.41
2022-12-24T01:51:14.384Z,100164.34
2022-12-24T01:53:45.239Z,100160.00
2022-12-24T01:56:13.037Z,100166.69
2022-12-24T01:58:42.000Z,100168.44
2022-12-24T02:01:09.315Z,100157.94
2022-12-24T02:07:34.099Z,100163.34
2022-12-24T02:10:02.049Z,100172.91
2022-12-24T02:12:31.979Z,100171.38
2022-12-24T02:14:59.517Z,100178.16
2022-12-24T02:17:38.358Z,100177.31
2022-12-24T02:20:13.615Z,100191.03
2022-12-24T02:23:14.004Z,100179.31
2022-12-24T02:25:49.271Z,100176.38
2022-12-24T02:28:36.812Z,100178.06
2022-12-24T02:31:15.176Z,100178.75
2022-12-24T02:33:56.746Z,100169.44
2022-12-24T02:36:33.493Z,100156.88
2022-12-24T02:39:10.501Z,100162.03
2022-12-24T02:42:02.370Z,100166.16
2022-12-24T02:44:32.139Z,100173.25
2022-12-24T02:47:00.680Z,100169.53
2022-12-24T02:49:27.090Z,100174.59
2022-12-24T02:51:53.492Z,100174.53
2022-12-24T02:54:20.253Z,100165.81
2022-12-24T02:57:00.663Z,100171.94
2022-12-24T02:59:35.153Z,100167.81
2022-12-24T03:02:07.352Z,100168.84
2022-12-24T03:04:54.217Z,100168.00
2022-12-24T03:07:26.242Z,100180.00
2022-12-24T03:10:10.913Z,100188.53
2022-12-24T03:12:46.942Z,100186.66
2022-12-24T03:15:17.370Z,100195.50
2022-12-24T03:17:47.735Z,100196.16
2022-12-24T03:20:20.686Z,100194.81
2022-12-24T03:22:47.272Z,100188.25
2022-12-24T03:25:16.619Z,100181.50
2022-12-24T03:27:44.051Z,100162.63
2022-12-24T03:30:13.715Z,100178.19
2022-12-24T03:32:40.705Z,100181.81
2022-12-24T03:35:08.580Z,100198.03
2022-12-24T03:37:35.015Z,100210.97
2022-12-24T03:40:04.005Z,100206.41
2022-12-24T03:42:33.030Z,100200.09
2022-12-24T03:44:59.388Z,100193.91
2022-12-24T03:47:25.796Z,100196.81
2022-12-24T03:49:52.195Z,100195.25
2022-12-24T03:52:18.548Z,100192.16
2022-12-24T03:54:44.965Z,100181.94
2022-12-24T03:57:11.326Z,100184.31
2022-12-24T03:59:37.756Z,100191.72
2022-12-24T04:02:22.811Z,100206.47
2022-12-24T04:04:49.374Z,100204.47
2022-12-24T04:07:15.710Z,100209.75
2022-12-24T04:09:42.436Z,100210.53
2022-12-24T04:12:08.834Z,100221.03
2022-12-24T04:14:37.350Z,100232.78
2022-12-24T04:17:06.887Z,100222.34
2022-12-24T04:19:33.289Z,100212.97
2022-12-24T04:22:02.005Z,100214.38
2022-12-24T04:24:28.749Z,100216.91
2022-12-24T04:26:55.217Z,100224.22
2022-12-24T04:29:21.615Z,100227.31
2022-12-24T04:31:48.042Z,100227.78
2022-12-24T04:34:14.497Z,100236.13
2022-12-24T04:36:40.890Z,100237.66
2022-12-24T04:39:09.843Z,100245.56
2022-12-24T04:41:40.907Z,100246.41
2022-12-24T04:44:08.607Z,100250.34
2022-12-24T04:46:35.734Z,100252.63
2022-12-24T04:49:02.181Z,100249.03
2022-12-24T04:51:29.213Z,100241.50
2022-12-24T04:53:56.622Z,100250.91
2022-12-24T04:56:29.827Z,100247.97
2022-12-24T04:58:56.711Z,100250.91
2022-12-24T05:01:26.326Z,100245.84
2022-12-24T05:03:56.383Z,100246.00
2022-12-24T05:06:26.848Z,100239.34
2022-12-24T05:08:59.549Z,100238.88
2022-12-24T05:11:26.572Z,100244.69
2022-12-24T05:13:53.109Z,100232.50
2022-12-24T05:16:21.309Z,100230.53
2022-12-24T05:18:50.848Z,100230.63
2022-12-24T05:21:22.685Z,100239.06
2022-12-24T05:24:08.416Z,100245.44
2022-12-24T05:26:40.537Z,100232.50
2022-12-24T05:29:09.260Z,100244.78
2022-12-24T05:31:36.140Z,100238.97
2022-12-24T05:34:03.261Z,100249.75
2022-12-24T05:36:29.805Z,100244.16
2022-12-24T05:38:56.662Z,100235.88
2022-12-24T05:41:23.689Z,100244.06
2022-12-24T05:43:50.675Z,100254.75
2022-12-24T05:46:19.188Z,100249.50
2022-12-24T05:48:46.709Z,100251.56
2022-12-24T05:51:14.546Z,100261.13
2022-12-24T05:53:41.822Z,100255.22
2022-12-24T05:56:14.257Z,100265.94
2022-12-24T05:58:41.580Z,100281.59
2022-12-24T06:01:09.422Z,100273.31
2022-12-24T06:03:36.968Z,100280.16
2022-12-24T06:06:06.614Z,100286.28
2022-12-24T06:08:36.873Z,100285.25
2022-12-24T06:11:06.538Z,100288.47
2022-12-24T06:13:33.607Z,100290.03
2022-12-24T06:16:02.482Z,100288.53
2022-12-24T06:18:30.345Z,100293.66
2022-12-24T06:20:57.592Z,100297.72
2022-12-24T06:23:25.195Z,100297.72
2022-12-24T06:25:52.029Z,100309.09
2022-12-24T06:28:18.683Z,100308.97
2022-12-24T06:30:57.157Z,100308.13
2022-12-24T06:33:27.355Z,100299.28
2022-12-24T06:35:53.779Z,100306.44
2022-12-24T06:38:20.419Z,100314.78
2022-12-24T06:40:47.453Z,100300.97
2022-12-24T06:43:17.042Z,100298.81
2022-12-24T06:45:47.885Z,100299.38
2022-12-24T06:48:17.381Z,100302.16
2022-12-24T06:50:43.761Z,100302.59
2022-12-24T06:53:10.682Z,100300.72
2022-12-24T06:55:37.305Z,100310.28
2022-12-24T06:58:06.270Z,100304.47
2022-12-24T07:00:32.734Z,100318.44
2022-12-24T07:02:59.381Z,100322.91
2022-12-24T07:05:29.219Z,100329.75
2022-12-24T07:07:55.807Z,100345.72
2022-12-24T07:10:23.235Z,100341.28
2022-12-24T07:12:49.633Z,100345.50
2022-12-24T07:15:16.848Z,100357.50
2022-12-24T07:17:43.496Z,100355.16
2022-12-24T07:20:15.312Z,100354.34
2022-12-24T07:22:42.499Z,100358.06
2022-12-24T07:25:09.692Z,100369.00
2022-12-24T07:27:36.838Z,100367.66
2022-12-24T07:30:04.071Z,100369.22
2022-12-24T07:32:30.617Z,100373.97
2022-12-24T07:34:57.133Z,100375.50
2022-12-24T07:37:25.739Z,100378.38
2022-12-24T07:39:54.715Z,100381.63
2022-12-24T07:42:23.678Z,100376.38
2022-12-24T07:44:50.649Z,100383.34
2022-12-24T07:47:17.097Z,100386.38
2022-12-24T07:49:43.636Z,100383.97
2022-12-24T07:52:10.059Z,100387.19
2022-12-24T07:54:36.457Z,100374.16
2022-12-24T07:57:05.178Z,100385.03
2022-12-24T07:59:31.571Z,100392.47
2022-12-24T08:01:58.420Z,100375.13
2022-12-24T08:04:25.179Z,100387.88
2022-12-24T08:06:53.942Z,100388.19
2022-12-24T08:09:22.888Z,100389.03
2022-12-24T08:11:52.179Z,100390.72
2022-12-24T08:14:19.175Z,100401.13
2022-12-24T08:16:45.611Z,100415.03
2022-12-24T08:19:12.032Z,100417.75
2022-12-24T08:21:40.775Z,100431.66
2022-12-24T08:24:07.257Z,100419.38
2022-12-24T08:26:33.645Z,100424.13
2022-12-24T08:29:00.111Z,100427.34
2022-12-24T08:31:26.700Z,100435.44
2022-12-24T08:33:58.179Z,100425.72
2022-12-24T08:36:24.522Z,100428.75
2022-12-24T08:38:53.850Z,100432.91
2022-12-24T08:41:20.240Z,100413.84
2022-12-24T08:43:46.703Z,100406.00
2022-12-24T08:46:13.157Z,100407.91
2022-12-24T08:48:39.654Z,100415.28
2022-12-24T08:51:10.532Z,100410.78
2022-12-24T08:53:38.148Z,100407.03
2022-12-24T08:56:06.824Z,100412.13
2022-12-24T08:58:33.496Z,100416.72
2022-12-24T09:01:00.287Z,100419.97
2022-12-24T09:03:28.102Z,100433.25
2022-12-24T09:05:55.067Z,100432.19
2022-12-24T09:08:21.653Z,100439.69
2022-12-24T09:10:48.133Z,100452.41
2022-12-24T09:13:14.558Z,100457.00
2022-12-24T09:15:40.965Z,100454.28
2022-12-24T09:18:07.518Z,100459.25
2022-12-24T09:20:36.227Z,100453.44
2022-12-24T09:23:02.709Z,100449.88
2022-12-24T09:25:29.178Z,100448.50
2022-12-24T09:27:55.552Z,100453.31
2022-12-24T09:30:22.191Z,100465.16
2022-12-24T09:32:51.390Z,100467.81
2022-12-24T09:35:17.805Z,100465.38
2022-12-24T09:37:46.971Z,100476.41
2022-12-24T09:40:27.400Z,100477.22
2022-12-24T09:42:54.801Z,100480.06
2022-12-24T09:45:33.035Z,100484.31
2022-12-24T09:48:03.710Z,100490.53
2022-12-24T09:50:41.247Z,100503.72
2022-12-24T09:53:23.459Z,100511.13
2022-12-24T09:55:54.466Z,100513.41
2022-12-24T09:58:41.328Z,100510.03
2022-12-24T10:01:13.192Z,100510.66
2022-12-24T10:03:43.845Z,100511.97
2022-12-24T10:06:24.985Z,100510.94
2022-12-24T10:09:30.896Z,100507.44
2022-12-24T10:12:03.230Z,100501.25
2022-12-24T10:14:43.677Z,100506.00
2022-12-24T10:17:52.282Z,100508.63
2022-12-24T10:20:56.171Z,100523.41
2022-12-24T10:24:04.486Z,100523.03
2022-12-24T10:26:39.189Z,100535.69
2022-12-24T10:29:14.374Z,100544.41
2022-12-24T10:31:50.090Z,100534.56
2022-12-24T10:34:22.605Z,100528.75
2022-12-24T10:36:51.446Z,100527.47
2022-12-24T10:39:25.809Z,100529.84
2022-12-24T10:41:55.322Z,100524.63
2022-12-24T10:44:25.810Z,100529.72
2022-12-24T10:46:52.358Z,100524.47
2022-12-24T10:49:44.071Z,100521.06
2022-12-24T10:52:13.251Z,100527.47
2022-12-24T10:55:08.118Z,100520.41
2022-12-24T10:57:35.366Z,100524.25
2022-12-24T11:00:04.300Z,100523.84
2022-12-24T11:02:37.329Z,100523.81
2022-12-24T11:05:30.891Z,100529.16
2022-12-24T11:08:20.410Z,100518.78
2022-12-24T11:10:59.011Z,100515.28
2022-12-24T11:13:40.968Z,100515.81
2022-12-24T11:16:10.157Z,100507.81
2022-12-24T11:18:50.512Z,100500.97
2022-12-24T11:21:34.251Z,100517.38
2022-12-24T11:24:03.132Z,100503.91
2022-12-24T11:26:30.826Z,100503.88
2022-12-24T11:29:18.663Z,100501.25
2022-12-24T11:31:46.040Z,100502.34
2022-12-24T11:34:22.278Z,100503.31
2022-12-24T11:36:56.826Z,100500.75
2022-12-24T11:39:25.975Z,100508.97
2022-12-24T11:41:55.851Z,100504.69
2022-12-24T11:44:27.592Z,100514.66
2022-12-24T11:46:59.063Z,100506.50
2022-12-24T11:49:28.654Z,100505.97
2022-12-24T11:52:10.176Z,100508.34
2022-12-24T11:54:53.291Z,100498.09
2022-12-24T11:57:25.150Z,100499.81
2022-12-24T11:59:54.174Z,100505.72
2022-12-24T12:02:28.318Z,100492.69
2022-12-24T12:05:03.199Z,100493.16
2022-12-24T12:07:36.768Z,100503.25
2022-12-24T12:10:07.867Z,100485.78
2022-12-24T12:12:41.685Z,100484.56
2022-12-24T12:15:19.081Z,100489.66
2022-12-24T12:17:54.724Z,100493.13
2022-12-24T12:20:33.406Z,100502.25
2022-12-24T12:23:30.484Z,100499.50
2022-12-24T12:26:28.785Z,100508.28
2022-12-24T12:29:03.963Z,100510.50
2022-12-24T12:31:36.561Z,100510.84
2022-12-24T12:34:12.072Z,100502.81
2022-12-24T12:37:14.901Z,100487.63
2022-12-24T12:39:42.333Z,100508.34
2022-12-24T12:42:15.080Z,100505.34
2022-12-24T12:44:59.939Z,100506.19
2022-12-24T12:47:56.017Z,100521.16
2022-12-24T12:51:03.638Z,100519.13
2022-12-24T12:53:40.589Z,100518.34
2022-12-24T12:56:25.629Z,100521.31
2022-12-24T12:59:07.644Z,100520.88
2022-12-24T13:01:47.051Z,100519.00
2022-12-24T13:04:39.833Z,100511.06
2022-12-24T13:07:24.410Z,100517.56
2022-12-24T13:10:03.108Z,100527.88
2022-12-24T13:12:56.571Z,100534.09
2022-12-24T13:15:46.929Z,100539.34
2022-12-24T13:18:31.650Z,100532.97
2022-12-24T13:20:58.224Z,100529.75
2022-12-24T13:23:26.499Z,100532.88
2022-12-24T13:25:56.235Z,100536.56
2022-12-24T13:28:24.781Z,100539.69
2022-12-24T13:31:24.421Z,100533.78
2022-12-24T13:33:57.019Z,100541.06
2022-12-24T13:36:23.939Z,100542.88
2022-12-24T13:38:57.258Z,100540.25
2022-12-24T13:41:41.403Z,100540.38
2022-12-24T13:44:17.506Z,100556.66
2022-12-24T13:47:03.248Z,100546.84
2022-12-24T13:49:37.420Z,100546.78
2022-12-24T13:52:15.313Z,100547.56
2022-12-24T13:54:46.041Z,100542.84
2022-12-24T13:57:33.892Z,100540.66
2022-12-24T14:00:22.658Z,100542.13
2022-12-24T14:02:55.344Z,100542.69
2022-12-24T14:05:32.208Z,100535.03
2022-12-24T14:08:01.838Z,100541.06
2022-12-24T14:10:39.024Z,100540.41
2022-12-24T14:13:09.921Z,100544.56
2022-12-24T14:15:48.464Z,100539.66
2022-12-24T14:18:24.524Z,100528.91
2022-12-24T14:20:53.026Z,100531.16
2022-12-24T14:23:31.615Z,100526.09
2022-12-24T14:26:00.686Z,100534.66
2022-12-24T14:28:34.767Z,100534.84
2022-12-24T14:31:05.743Z,100539.47
2022-12-24T14:33:34.571Z,100541.81
2022-12-24T14:36:02.509Z,100536.38
2022-12-24T14:38:35.601Z,100534.09
2022-12-24T14:41:28.424Z,100531.09
2022-12-24T14:44:21.768Z,100535.41
2022-12-24T14:46:58.769Z,100531.91
2022-12-24T14:49:55.361Z,100540.34
2022-12-24T14:55:50.947Z,100551.81
2022-12-24T14:58:36.328Z,100553.06
2022-12-24T15:01:23.333Z,100556.06
2022-12-24T15:04:14.029Z,100543.03
2022-12-24T15:06:43.379Z,100555.84
2022-12-24T15:09:21.142Z,100550.44
2022-12-24T15:11:54.082Z,100560.38
2022-12-24T15:14:27.608Z,100559.56
2022-12-24T15:17:00.757Z,100555.69
2022-12-24T15:19:40.307Z,100564.41
2022-12-24T15:22:23.357Z,100571.41
2022-12-24T15:24:49.886Z,100579.56
2022-12-24T15:27:19.730Z,100574.47
2022-12-24T15:29:49.035Z,100572.97
2022-12-24T15:32:19.979Z,100574.47
2022-12-24T15:34:48.843Z,100580.25
2022-12-24T15:37:21.400Z,100582.16
2022-12-24T15:39:59.498Z,100583.50
2022-12-24T15:42:27.714Z,100588.63
2022-12-24T15:44:57.281Z,100579.47
2022-12-24T15:47:29.966Z,100595.94
2022-12-24T15:49:56.951Z,100596.28
2022-12-24T15:52:25.365Z,100602.81
2022-12-24T15:54:57.661Z,100608.38
2022-12-24T15:57:29.670Z,100605.47
2022-12-24T15:59:58.096Z,100598.09
2022-12-24T16:02:39.976Z,100600.53
2022-12-24T16:05:21.758Z,100598.00
2022-12-24T16:08:09.577Z,100604.13
2022-12-24T16:11:08.389Z,100604.84
2022-12-24T16:13:43.121Z,100603.50
2022-12-24T16:16:13.061Z,100602.16
2022-12-24T16:18:46.829Z,100608.13
2022-12-24T16:21:28.697Z,100609.31
2022-12-24T16:23:57.677Z,100615.13
2022-12-24T16:26:24.410Z,100622.78
2022-12-24T16:28:50.914Z,100618.56
2022-12-24T16:31:20.142Z,100618.19
2022-12-24T16:33:47.187Z,100621.94
2022-12-24T16:36:14.724Z,100614.97
2022-12-24T16:38:59.849Z,100601.16
2022-12-24T16:41:26.243Z,100603.00
2022-12-24T16:43:52.609Z,100600.97
2022-12-24T16:46:19.186Z,100596.34
2022-12-24T16:48:48.253Z,100606.91
2022-12-24T16:51:14.715Z,100618.47
2022-12-24T16:53:41.284Z,100624.63
2022-12-24T16:56:07.901Z,100630.72
2022-12-24T16:58:34.987Z,100636.50
2022-12-24T17:01:07.807Z,100627.00
2022-12-24T17:03:35.308Z,100640.25
2022-12-24T17:06:05.809Z,100632.59
2022-12-24T17:08:34.426Z,100636.53
2022-12-24T17:11:06.108Z,100639.25
2022-12-24T17:13:32.488Z,100644.03
2022-12-24T17:16:01.253Z,100629.56
2022-12-24T17:18:27.645Z,100638.25
2022-12-24T17:21:01.082Z,100630.06
2022-12-24T17:23:27.959Z,100633.66
2022-12-24T17:25:54.342Z,100639.25
2022-12-24T17:28:21.547Z,100643.69
2022-12-24T17:30:48.054Z,100644.34
2022-12-24T17:33:15.194Z,100637.75
2022-12-24T17:35:42.848Z,100646.94
2022-12-24T17:38:09.706Z,100644.41
2022-12-24T17:40:38.785Z,100653.38
2022-12-24T17:43:07.417Z,100668.38
2022-12-24T17:45:33.757Z,100665.31
2022-12-24T17:48:00.147Z,100660.53
2022-12-24T17:50:27.923Z,100660.53
2022-12-24T17:52:54.295Z,100662.94
2022-12-24T17:55:22.521Z,100661.22
2022-12-24T17:57:49.166Z,100653.91
2022-12-24T18:00:16.467Z,100636.91
2022-12-24T18:02:43.038Z,100650.84
2022-12-24T18:05:09.760Z,100645.56
2022-12-24T18:07:36.275Z,100637.91
2022-12-24T18:10:04.637Z,100643.19
2022-12-24T18:12:31.130Z,100630.75
2022-12-24T18:14:57.647Z,100638.03
2022-12-24T18:17:24.280Z,100644.03
2022-12-24T18:19:50.965Z,100647.25
2022-12-24T18:22:17.378Z,100654.91
2022-12-24T18:24:46.264Z,100656.59
2022-12-24T18:27:12.611Z,100660.88
2022-12-24T18:29:41.512Z,100657.13
2022-12-24T18:32:08.630Z,100654.22
2022-12-24T18:34:38.679Z,100658.50
2022-12-24T18:37:05.080Z,100658.81
2022-12-24T18:39:31.539Z,100659.66
2022-12-24T18:41:57.917Z,100659.31
2022-12-24T18:44:26.649Z,100652.19
2022-12-24T18:46:56.263Z,100643.84
2022-12-24T18:49:22.767Z,100637.72
2022-12-24T18:51:49.251Z,100643.16
2022-12-24T18:54:15.607Z,100636.88
2022-12-24T18:56:42.070Z,100627.34
2022-12-24T18:59:09.605Z,100635.84
2022-12-24T19:01:36.371Z,100639.59
2022-12-24T19:04:05.324Z,100635.16
2022-12-24T19:06:31.774Z,100630.72
2022-12-24T19:09:00.200Z,100643.66
2022-12-24T19:11:29.844Z,100645.69
2022-12-24T19:13:57.904Z,100661.34
2022-12-24T19:16:24.839Z,100662.72
2022-12-24T19:18:56.274Z,100670.19
2022-12-24T19:21:22.884Z,100667.47
2022-12-24T19:23:51.991Z,100672.09
2022-12-24T19:26:19.813Z,100671.06
2022-12-24T19:28:48.434Z,100682.13
2022-12-24T19:31:18.825Z,100684.50
2022-12-24T19:33:48.166Z,100694.69
2022-12-24T19:36:19.481Z,100691.28
2022-12-24T19:38:46.069Z,100689.25
2022-12-24T19:41:18.902Z,100685.84
2022-12-24T19:43:48.067Z,100689.75
2022-12-24T19:46:17.408Z,100685.50
2022-12-24T19:48:50.071Z,100687.72
2022-12-24T19:51:17.707Z,100691.28
2022-12-24T19:53:47.828Z,100688.38
2022-12-24T19:56:16.818Z,100687.22
2022-12-24T19:58:44.474Z,100685.50
2022-12-24T20:01:16.050Z,100687.22
2022-12-24T20:03:43.805Z,100687.22
2022-12-24T20:06:10.836Z,100695.19
2022-12-24T20:08:37.998Z,100692.66
2022-12-24T20:11:07.403Z,100699.44
2022-12-24T20:13:34.846Z,100700.81
2022-12-24T20:16:06.843Z,100698.41
2022-12-24T20:18:38.263Z,100697.91
2022-12-24T20:21:08.727Z,100698.59
2022-12-24T20:23:39.896Z,100701.31
2022-12-24T20:26:07.788Z,100704.19
2022-12-24T20:28:36.404Z,100710.34
2022-12-24T20:31:20.302Z,100712.00
2022-12-24T20:33:49.362Z,100704.03
2022-12-24T20:36:18.224Z,100718.81
2022-12-24T20:38:45.349Z,100707.63
2022-12-24T20:41:14.733Z,100716.59
2022-12-24T20:43:47.915Z,100725.81
2022-12-24T20:46:21.700Z,100727.84
2022-12-24T20:48:48.795Z,100727.69
2022-12-24T20:51:23.765Z,100739.56
2022-12-24T20:53:53.264Z,100735.84
2022-12-24T20:56:22.559Z,100739.94
2022-12-24T20:58:49.218Z,100742.66
2022-12-24T21:01:19.377Z,100741.63
2022-12-24T21:03:46.345Z,100734.28
2022-12-24T21:06:13.745Z,100726.31
2022-12-24T21:08:40.153Z,100718.81
2022-12-24T21:11:25.058Z,100720.19
2022-12-24T21:13:51.563Z,100719.31
2022-12-24T21:16:17.979Z,100721.72
2022-12-24T21:18:44.376Z,100720.72
2022-12-24T21:21:15.597Z,100721.22
2022-12-24T21:23:42.180Z,100713.22
2022-12-24T21:26:08.672Z,100719.50
2022-12-24T21:28:35.156Z,100712.34
2022-12-24T21:31:01.765Z,100695.88
2022-12-24T21:33:32.060Z,100687.00
2022-12-24T21:36:02.862Z,100693.66
2022-12-24T21:38:29.267Z,100693.81
2022-12-24T21:41:16.527Z,100686.72
2022-12-24T21:43:43.641Z,100685.84
2022-12-24T21:46:13.046Z,100693.16
2022-12-24T21:48:59.082Z,100688.06
2022-12-24T21:51:26.882Z,100700.81
2022-12-24T21:54:12.379Z,100703.53
2022-12-24T21:57:04.862Z,100700.81
2022-12-24T21:59:31.351Z,100702.53
2022-12-24T22:01:58.457Z,100693.81
2022-12-24T22:04:25.306Z,100693.00
2022-12-24T22:07:13.154Z,100691.59
2022-12-24T22:09:58.839Z,100676.97
2022-12-24T22:12:29.443Z,100675.97
2022-12-24T22:14:55.897Z,100672.03
2022-12-24T22:17:25.783Z,100679.03
2022-12-24T22:19:53.545Z,100678.69
2022-12-24T22:22:23.330Z,100682.41
2022-12-24T22:24:49.832Z,100682.06
2022-12-24T22:27:18.409Z,100692.78
2022-12-24T22:29:47.169Z,100688.00
2022-12-24T22:32:16.095Z,100688.34
2022-12-24T22:34:43.579Z,100686.63
2022-12-24T22:37:10.056Z,100692.06
2022-12-24T22:39:36.706Z,100694.78
2022-12-24T22:42:07.950Z,100685.13
2022-12-24T22:44:34.593Z,100682.38
2022-12-24T22:47:01.016Z,100686.13
2022-12-24T22:49:30.526Z,100686.47
2022-12-24T22:52:00.647Z,100689.19
2022-12-24T22:54:27.165Z,100690.41
2022-12-24T22:56:53.885Z,100692.63
2022-12-24T22:59:20.275Z,100695.69
2022-12-24T23:01:47.708Z,100698.75
2022-12-24T23:04:14.428Z,100697.59
2022-12-24T23:06:41.753Z,100692.31
2022-12-24T23:09:16.670Z,100690.78
2022-12-24T23:11:44.084Z,100690.59
2022-12-24T23:14:34.661Z,100693.31
2022-12-24T23:17:04.232Z,100692.31
2022-12-24T23:19:31.967Z,100686.00
2022-12-24T23:22:01.679Z,100675.97
2022-12-24T23:24:28.411Z,100678.88
2022-12-24T23:26:55.682Z,100673.63
2022-12-24T23:29:22.301Z,100672.91
2022-12-24T23:31:51.141Z,100663.09
2022-12-24T23:34:17.611Z,100671.91
2022-12-24T23:36:44.141Z,100665.81
2022-12-24T23:39:10.580Z,100666.81
2022-12-24T23:41:37.103Z,100668.69
2022-12-24T23:44:04.500Z,100669.38
2022-12-24T23:46:31.034Z,100671.25
2022-12-24T23:48:57.514Z,100674.28
2022-12-24T23:51:26.517Z,100681.44
2022-12-24T23:53:56.572Z,100689.59
2022-12-24T23:56:25.078Z,100680.25
2022-12-24T23:58:51.988Z,100684.00
